createdAt,value
2019-05-29T00:02:57.339Z,9.77
2019-05-29T00:08:06.177Z,12.60
2019-05-29T00:13:14.765Z,14.00
2019-05-29T00:18:22.180Z,13.17
2019-05-29T00:23:29.552Z,16.73
2019-05-29T00:28:36.970Z,12.90
2019-05-29T00:33:45.560Z,14.87
2019-05-29T00:38:53.007Z,14.67
2019-05-29T00:44:00.458Z,25.53
2019-05-29T00:49:07.881Z,14.63
2019-05-29T00:54:16.455Z,13.67
2019-05-29T00:59:23.956Z,21.37
2019-05-29T01:04:31.287Z,11.33
2019-05-29T01:09:38.648Z,10.73
2019-05-29T01:14:50.158Z,15.10
2019-05-29T01:19:55.295Z,18.33
2019-05-29T01:25:02.643Z,15.10
2019-05-29T01:30:11.065Z,12.20
2019-05-29T01:35:19.925Z,9.43
2019-05-29T01:40:29.447Z,11.90
2019-05-29T01:45:36.494Z,16.30
2019-05-29T01:50:44.214Z,12.50
2019-05-29T01:55:51.608Z,10.07
2019-05-29T02:00:58.966Z,10.20
2019-05-29T02:06:06.353Z,15.97
2019-05-29T02:11:14.969Z,10.07
2019-05-29T02:16:22.869Z,10.73
2019-05-29T02:21:30.313Z,12.40
2019-05-29T02:26:37.731Z,7.80
2019-05-29T02:31:45.079Z,7.10
2019-05-29T02:36:52.431Z,9.53
2019-05-29T02:41:59.810Z,7.67
2019-05-29T02:47:07.211Z,10.93
2019-05-29T02:52:14.635Z,9.37
2019-05-29T02:57:22.843Z,7.50
2019-05-29T03:02:31.879Z,11.47
2019-05-29T03:07:39.430Z,8.53
2019-05-29T03:12:47.667Z,9.07
2019-05-29T03:17:54.985Z,7.23
2019-05-29T03:23:02.465Z,6.30
2019-05-29T03:28:10.037Z,10.17
2019-05-29T03:33:17.539Z,7.93
2019-05-29T03:38:26.069Z,10.60
2019-05-29T03:43:35.795Z,6.80
2019-05-29T03:48:42.595Z,10.30
2019-05-29T03:53:49.981Z,5.23
2019-05-29T03:58:57.380Z,8.77
2019-05-29T04:04:04.876Z,9.30
2019-05-29T04:09:12.297Z,11.60
2019-05-29T04:14:19.755Z,6.83
2019-05-29T04:19:30.112Z,10.60
2019-05-29T04:24:41.214Z,7.00
2019-05-29T04:29:50.898Z,9.83
2019-05-29T04:34:59.007Z,10.23
2019-05-29T04:40:07.634Z,6.93
2019-05-29T04:45:15.475Z,10.87
2019-05-29T04:50:23.264Z,9.10
2019-05-29T04:55:32.686Z,6.60
2019-05-29T05:00:40.688Z,6.57
2019-05-29T05:05:48.246Z,9.67
2019-05-29T05:10:55.663Z,6.43
2019-05-29T05:16:04.968Z,8.40
2019-05-29T05:21:12.378Z,7.60
2019-05-29T05:26:19.828Z,6.67
2019-05-29T05:31:27.265Z,7.87
2019-05-29T05:36:34.775Z,7.70
2019-05-29T05:41:42.101Z,5.03
2019-05-29T05:46:49.624Z,7.80
2019-05-29T05:51:57.108Z,7.20
2019-05-29T05:57:04.412Z,6.63
2019-05-29T06:02:11.833Z,6.77
2019-05-29T06:07:19.337Z,7.80
2019-05-29T06:12:26.893Z,7.47
2019-05-29T06:17:34.471Z,6.57
2019-05-29T06:22:43.501Z,4.83
2019-05-29T06:27:51.010Z,7.10
2019-05-29T06:32:58.301Z,4.10
2019-05-29T06:38:05.796Z,7.93
2019-05-29T06:43:23.561Z,6.40
2019-05-29T06:48:42.912Z,6.80
2019-05-29T06:53:41.764Z,6.43
2019-05-29T06:58:50.214Z,5.83
2019-05-29T07:04:11.376Z,7.83
2019-05-29T07:09:08.641Z,7.87
2019-05-29T07:14:16.051Z,7.17
2019-05-29T07:19:32.790Z,5.67
2019-05-29T07:24:33.151Z,5.10
2019-05-29T07:29:41.137Z,6.50
2019-05-29T07:35:02.265Z,6.10
2019-05-29T07:39:57.893Z,6.47
2019-05-29T07:45:05.903Z,7.83
2019-05-29T07:50:14.188Z,8.33
2019-05-29T07:55:23.615Z,6.80
2019-05-29T08:00:35.691Z,5.53
2019-05-29T08:05:41.086Z,7.47
2019-05-29T08:10:49.779Z,5.20
2019-05-29T08:16:02.557Z,7.53
2019-05-29T08:21:06.177Z,4.67
2019-05-29T08:26:13.671Z,9.23
2019-05-29T08:31:21.220Z,9.23
2019-05-29T08:36:28.512Z,5.03
2019-05-29T08:41:36.006Z,6.93
2019-05-29T08:47:01.466Z,7.63
2019-05-29T08:51:52.411Z,3.97
2019-05-29T08:56:59.717Z,5.73
2019-05-29T09:02:07.535Z,5.53
2019-05-29T09:07:14.849Z,5.67
2019-05-29T09:12:22.500Z,3.00
2019-05-29T09:17:30.081Z,5.53
2019-05-29T09:22:37.721Z,3.73
2019-05-29T09:27:45.440Z,5.20
2019-05-29T09:32:53.905Z,3.57
2019-05-29T09:38:03.144Z,6.00
2019-05-29T09:43:10.784Z,9.33
2019-05-29T09:48:21.681Z,6.23
2019-05-29T09:53:27.759Z,4.80
2019-05-29T09:58:35.221Z,5.73
2019-05-29T10:03:42.576Z,3.07
2019-05-29T10:08:50.149Z,3.80
2019-05-29T10:13:58.820Z,5.33
2019-05-29T10:19:07.523Z,4.47
2019-05-29T10:24:15.674Z,2.67
2019-05-29T10:29:23.318Z,4.67
2019-05-29T10:34:31.444Z,4.27
2019-05-29T10:39:38.873Z,6.13
2019-05-29T10:44:46.915Z,4.20
2019-05-29T10:49:54.647Z,7.07
2019-05-29T10:55:02.454Z,5.50
2019-05-29T11:00:11.868Z,4.40
2019-05-29T11:05:19.760Z,4.27
2019-05-29T11:10:27.164Z,3.57
2019-05-29T11:15:35.604Z,2.17
2019-05-29T11:20:43.286Z,5.57
2019-05-29T11:25:52.074Z,3.90
2019-05-29T11:31:06.267Z,4.73
2019-05-29T11:36:12.929Z,6.67
2019-05-29T11:41:26.202Z,3.80
2019-05-29T11:46:27.840Z,4.63
2019-05-29T11:51:35.990Z,7.00
2019-05-29T11:56:43.449Z,5.00
2019-05-29T12:01:52.934Z,4.10
2019-05-29T12:07:01.561Z,5.37
2019-05-29T12:12:08.947Z,4.67
2019-05-29T12:17:16.327Z,8.33
2019-05-29T12:22:24.099Z,3.47
2019-05-29T12:27:31.466Z,3.77
2019-05-29T12:32:38.948Z,3.90
2019-05-29T12:37:46.788Z,2.50
2019-05-29T12:42:55.639Z,3.57
2019-05-29T12:48:11.035Z,4.97
2019-05-29T12:53:28.870Z,3.60
2019-05-29T12:58:23.816Z,3.07
2019-05-29T13:03:32.147Z,4.37
2019-05-29T13:08:39.656Z,4.37
2019-05-29T13:13:47.431Z,6.33
2019-05-29T13:18:55.263Z,2.83
2019-05-29T13:24:04.376Z,2.63
2019-05-29T13:29:12.795Z,1.97
2019-05-29T13:34:20.169Z,3.13
2019-05-29T13:39:29.887Z,2.97
2019-05-29T13:44:36.875Z,3.63
2019-05-29T13:49:44.283Z,3.67
2019-05-29T13:54:51.844Z,4.23
2019-05-29T14:00:17.064Z,4.13
2019-05-29T14:05:15.118Z,1.93
2019-05-29T14:10:24.715Z,6.20
2019-05-29T14:15:32.276Z,4.30
2019-05-29T14:20:39.908Z,3.77
2019-05-29T14:25:50.157Z,1.93
2019-05-29T14:30:57.620Z,2.90
2019-05-29T14:36:05.971Z,1.87
2019-05-29T14:41:14.610Z,3.90
2019-05-29T14:46:22.241Z,5.40
2019-05-29T14:51:29.770Z,2.23
2019-05-29T14:56:37.559Z,3.87
2019-05-29T15:01:45.675Z,2.10
2019-05-29T15:06:53.235Z,2.77
2019-05-29T15:12:03.995Z,5.00
2019-05-29T15:17:13.033Z,4.93
2019-05-29T15:22:20.714Z,1.90
2019-05-29T15:27:28.666Z,3.50
2019-05-29T15:32:36.178Z,3.40
2019-05-29T15:37:44.043Z,1.30
2019-05-29T15:42:51.489Z,2.33
2019-05-29T15:47:59.044Z,3.93
2019-05-29T15:53:07.075Z,2.20
2019-05-29T15:58:15.380Z,2.93
2019-05-29T16:03:22.782Z,2.20
2019-05-29T16:08:30.614Z,4.20
2019-05-29T16:13:38.072Z,3.10
2019-05-29T16:18:45.949Z,2.33
2019-05-29T16:23:53.957Z,1.80
2019-05-29T16:29:02.067Z,2.50
2019-05-29T16:34:09.851Z,2.53
2019-05-29T16:39:19.244Z,1.43
2019-05-29T16:44:29.428Z,1.67
2019-05-29T16:49:36.657Z,1.70
2019-05-29T16:54:44.095Z,3.67
2019-05-29T16:59:51.427Z,3.17
2019-05-29T17:04:59.939Z,5.70
2019-05-29T17:10:07.716Z,8.20
2019-05-29T17:15:17.150Z,8.00
2019-05-29T17:20:41.243Z,5.07
2019-05-29T17:25:48.685Z,3.73
2019-05-29T17:30:56.171Z,2.03
2019-05-29T17:36:03.663Z,2.97
2019-05-29T17:41:11.061Z,4.00
2019-05-29T17:46:19.722Z,4.00
2019-05-29T17:51:27.141Z,3.13
2019-05-29T17:56:36.980Z,6.90
2019-05-29T18:01:43.592Z,9.87
2019-05-29T18:06:56.455Z,11.20
2019-05-29T18:12:02.770Z,8.13
2019-05-29T18:17:10.170Z,5.37
2019-05-29T18:22:17.617Z,7.63
2019-05-29T18:27:26.017Z,5.27
2019-05-29T18:32:33.574Z,3.83
2019-05-29T18:37:41.236Z,4.77
2019-05-29T18:42:48.597Z,7.03
2019-05-29T18:47:56.015Z,2.63
2019-05-29T18:53:03.481Z,3.27
2019-05-29T18:58:10.894Z,5.70
2019-05-29T19:03:18.392Z,6.13
2019-05-29T19:08:25.926Z,3.20
2019-05-29T19:13:36.704Z,5.20
2019-05-29T19:18:42.876Z,8.03
2019-05-29T19:23:50.279Z,7.03
2019-05-29T19:28:57.777Z,10.13
2019-05-29T19:34:05.254Z,11.07
2019-05-29T19:39:13.638Z,9.57
2019-05-29T19:44:21.073Z,5.30
2019-05-29T19:49:28.887Z,6.37
2019-05-29T19:54:36.293Z,7.10
2019-05-29T19:59:43.689Z,7.10
2019-05-29T20:04:51.132Z,11.73
2019-05-29T20:09:58.581Z,9.27
2019-05-29T20:15:08.064Z,6.43
2019-05-29T20:20:15.836Z,28.93
2019-05-29T20:25:23.103Z,53.43
2019-05-29T20:30:30.666Z,18.13
2019-05-29T20:35:39.153Z,10.73
2019-05-29T20:40:46.744Z,7.90
2019-05-29T20:45:54.147Z,8.70
2019-05-29T20:51:01.587Z,8.17
2019-05-29T20:56:08.983Z,6.90
2019-05-29T21:01:16.506Z,8.33
2019-05-29T21:06:24.028Z,10.30
2019-05-29T21:11:31.386Z,7.27
2019-05-29T21:16:39.771Z,9.30
2019-05-29T21:21:47.350Z,11.03
2019-05-29T21:26:54.703Z,8.83
2019-05-29T21:32:02.164Z,7.23
2019-05-29T21:37:09.544Z,5.80
2019-05-29T21:42:16.968Z,7.67
2019-05-29T21:47:24.397Z,5.93
2019-05-29T21:52:31.799Z,7.77
2019-05-29T21:57:42.283Z,7.63
2019-05-29T22:02:48.616Z,5.93
2019-05-29T22:07:56.126Z,6.33
2019-05-29T22:13:03.657Z,6.03
2019-05-29T22:18:11.104Z,5.17
2019-05-29T22:23:18.460Z,5.83
2019-05-29T22:28:25.872Z,4.07
2019-05-29T22:33:33.245Z,5.97
2019-05-29T22:38:40.644Z,5.33
2019-05-29T22:43:48.116Z,9.53
2019-05-29T22:48:55.887Z,6.00
2019-05-29T22:54:03.351Z,7.17
2019-05-29T22:59:10.722Z,7.73
2019-05-29T23:04:18.133Z,8.93
2019-05-29T23:09:26.513Z,9.27
2019-05-29T23:14:34.819Z,6.80
2019-05-29T23:19:42.117Z,8.27
2019-05-29T23:24:49.470Z,9.63
2019-05-29T23:29:56.863Z,13.27
2019-05-29T23:35:04.475Z,11.63
2019-05-29T23:40:12.011Z,5.23
2019-05-29T23:45:19.588Z,6.37
2019-05-29T23:50:26.948Z,6.07
2019-05-29T23:55:34.370Z,11.03
